createdAt,value
2023-03-25T00:02:24.932Z,99556.13
2023-03-25T00:04:53.612Z,99556.53
2023-03-25T00:07:22.818Z,99553.00
2023-03-25T00:09:50.985Z,99548.63
2023-03-25T00:12:19.790Z,99554.38
2023-03-25T00:14:54.720Z,99545.19
2023-03-25T00:17:26.464Z,99546.97
2023-03-25T00:19:55.584Z,99555.50
2023-03-25T00:22:26.379Z,99548.41
2023-03-25T00:24:54.785Z,99540.69
2023-03-25T00:27:22.625Z,99530.50
2023-03-25T00:29:50.510Z,99534.25
2023-03-25T00:32:20.906Z,99534.25
2023-03-25T00:34:50.063Z,99530.09
2023-03-25T00:37:18.214Z,99542.19
2023-03-25T00:39:46.207Z,99544.31
2023-03-25T00:42:17.266Z,99537.47
2023-03-25T00:44:45.185Z,99537.69
2023-03-25T00:47:18.254Z,99546.69
2023-03-25T00:49:46.473Z,99539.28
2023-03-25T00:52:16.807Z,99543.03
2023-03-25T00:54:45.733Z,99548.09
2023-03-25T00:57:13.877Z,99554.19
2023-03-25T00:59:41.791Z,99545.09
2023-03-25T01:02:10.296Z,99556.56
2023-03-25T01:04:41.426Z,99549.91
2023-03-25T01:07:09.979Z,99547.75
2023-03-25T01:09:41.466Z,99552.22
2023-03-25T01:12:09.830Z,99539.41
2023-03-25T01:14:38.187Z,99533.84
2023-03-25T01:17:06.667Z,99531.69
2023-03-25T01:19:34.925Z,99543.69
2023-03-25T01:22:02.836Z,99534.47
2023-03-25T01:24:31.375Z,99541.50
2023-03-25T01:27:00.721Z,99539.81
2023-03-25T01:29:30.411Z,99538.41
2023-03-25T01:31:58.972Z,99545.91
2023-03-25T01:34:27.202Z,99543.03
2023-03-25T01:36:56.322Z,99542.59
2023-03-25T01:39:24.372Z,99542.59
2023-03-25T01:41:55.020Z,99538.72
2023-03-25T01:44:59.880Z,99531.44
2023-03-25T01:47:29.339Z,99533.66
2023-03-25T01:49:57.410Z,99541.63
2023-03-25T01:52:29.641Z,99531.56
2023-03-25T01:54:59.603Z,99532.91
2023-03-25T01:57:28.291Z,99530.00
2023-03-25T01:59:57.000Z,99525.16
2023-03-25T02:02:36.528Z,99519.06
2023-03-25T02:05:11.671Z,99517.84
2023-03-25T02:07:42.900Z,99521.06
2023-03-25T02:10:12.724Z,99513.25
2023-03-25T02:12:41.005Z,99522.41
2023-03-25T02:15:11.939Z,99519.25
2023-03-25T02:17:52.245Z,99525.56
2023-03-25T02:20:54.310Z,99518.06
2023-03-25T02:23:58.343Z,99527.38
2023-03-25T02:27:00.470Z,99531.03
2023-03-25T02:29:50.642Z,99523.06
2023-03-25T02:32:34.357Z,99536.03
2023-03-25T02:35:32.326Z,99524.56
2023-03-25T02:38:21.780Z,99529.47
2023-03-25T02:40:58.622Z,99528.91
2023-03-25T02:43:32.414Z,99538.81
2023-03-25T02:46:04.740Z,99529.63
2023-03-25T02:48:39.015Z,99509.09
2023-03-25T02:51:11.279Z,99521.41
2023-03-25T02:53:43.919Z,99508.94
2023-03-25T02:56:17.327Z,99503.16
2023-03-25T02:58:47.741Z,99496.03
2023-03-25T03:01:15.810Z,99502.59
2023-03-25T03:03:44.260Z,99508.31
2023-03-25T03:06:18.626Z,99502.16
2023-03-25T03:09:08.944Z,99499.03
2023-03-25T03:11:48.663Z,99507.44
2023-03-25T03:14:35.343Z,99506.25
2023-03-25T03:17:13.552Z,99496.94
2023-03-25T03:19:47.904Z,99499.72
2023-03-25T03:22:30.213Z,99485.16
2023-03-25T03:25:05.186Z,99496.97
2023-03-25T03:27:36.031Z,99492.25
2023-03-25T03:30:08.820Z,99490.47
2023-03-25T03:32:45.726Z,99495.16
2023-03-25T03:35:19.301Z,99504.03
2023-03-25T03:37:51.567Z,99497.16
2023-03-25T03:40:23.832Z,99506.59
2023-03-25T03:42:56.248Z,99503.38
2023-03-25T03:45:30.575Z,99498.97
2023-03-25T03:48:01.657Z,99502.59
2023-03-25T03:50:34.038Z,99501.25
2023-03-25T03:53:09.927Z,99504.03
2023-03-25T03:55:44.049Z,99507.25
2023-03-25T03:58:16.295Z,99509.50
2023-03-25T04:00:50.756Z,99512.81
2023-03-25T04:03:24.648Z,99510.00
2023-03-25T04:05:57.032Z,99508.00
2023-03-25T04:08:30.481Z,99506.63
2023-03-25T04:11:04.709Z,99518.88
2023-03-25T04:13:38.110Z,99517.88
2023-03-25T04:16:07.755Z,99507.19
2023-03-25T04:18:35.855Z,99511.50
2023-03-25T04:21:04.009Z,99518.63
2023-03-25T04:23:32.042Z,99515.00
2023-03-25T04:26:02.726Z,99526.94
2023-03-25T04:28:31.796Z,99526.72
2023-03-25T04:31:00.614Z,99527.09
2023-03-25T04:33:31.963Z,99518.69
2023-03-25T04:36:02.007Z,99523.84
2023-03-25T04:38:30.428Z,99514.94
2023-03-25T04:41:00.326Z,99513.00
2023-03-25T04:43:29.635Z,99510.59
2023-03-25T04:45:57.633Z,99510.41
2023-03-25T04:48:30.150Z,99511.34
2023-03-25T04:50:58.935Z,99517.06
2023-03-25T04:53:27.125Z,99510.81
2023-03-25T04:55:55.150Z,99515.63
2023-03-25T04:58:23.516Z,99522.41
2023-03-25T05:00:53.963Z,99521.97
2023-03-25T05:03:23.989Z,99509.63
2023-03-25T05:05:52.797Z,99509.53
2023-03-25T05:08:21.641Z,99518.19
2023-03-25T05:10:50.396Z,99524.06
2023-03-25T05:13:18.382Z,99521.50
2023-03-25T05:15:46.216Z,99525.56
2023-03-25T05:18:17.678Z,99523.13
2023-03-25T05:20:50.984Z,99526.19
2023-03-25T05:23:19.265Z,99519.19
2023-03-25T05:25:48.156Z,99530.41
2023-03-25T05:28:16.234Z,99517.16
2023-03-25T05:30:46.717Z,99526.75
2023-03-25T05:33:17.960Z,99519.84
2023-03-25T05:35:46.813Z,99510.91
2023-03-25T05:38:18.253Z,99523.22
2023-03-25T05:40:47.435Z,99519.28
2023-03-25T05:43:23.154Z,99531.72
2023-03-25T05:45:51.323Z,99532.44
2023-03-25T05:48:21.182Z,99531.47
2023-03-25T05:50:49.156Z,99524.50
2023-03-25T05:53:17.036Z,99528.56
2023-03-25T05:55:44.969Z,99533.81
2023-03-25T05:58:12.830Z,99530.16
2023-03-25T06:00:40.691Z,99525.34
2023-03-25T06:03:09.199Z,99527.81
2023-03-25T06:05:40.078Z,99524.78
2023-03-25T06:08:08.418Z,99518.66
2023-03-25T06:10:36.758Z,99526.59
2023-03-25T06:13:04.690Z,99520.72
2023-03-25T06:15:39.018Z,99533.19
2023-03-25T06:18:07.116Z,99518.59
2023-03-25T06:20:34.900Z,99527.00
2023-03-25T06:23:04.180Z,99535.75
2023-03-25T06:25:32.156Z,99536.34
2023-03-25T06:28:03.146Z,99536.56
2023-03-25T06:30:31.168Z,99522.50
2023-03-25T06:33:02.869Z,99522.38
2023-03-25T06:35:30.800Z,99533.72
2023-03-25T06:37:58.606Z,99528.22
2023-03-25T06:40:38.043Z,99535.06
2023-03-25T06:43:06.617Z,99539.97
2023-03-25T06:45:53.099Z,99534.50
2023-03-25T06:48:40.554Z,99552.13
2023-03-25T06:51:09.158Z,99543.78
2023-03-25T06:53:36.996Z,99534.84
2023-03-25T06:56:06.939Z,99540.69
2023-03-25T06:58:35.673Z,99538.72
2023-03-25T07:01:07.285Z,99549.38
2023-03-25T07:03:36.419Z,99539.69
2023-03-25T07:06:05.003Z,99539.91
2023-03-25T07:08:33.030Z,99540.22
2023-03-25T07:11:08.038Z,99546.75
2023-03-25T07:13:36.188Z,99539.31
2023-03-25T07:16:04.174Z,99536.25
2023-03-25T07:18:32.242Z,99544.59
2023-03-25T07:21:01.582Z,99541.50
2023-03-25T07:23:29.539Z,99544.22
2023-03-25T07:25:57.374Z,99539.75
2023-03-25T07:28:27.906Z,99549.84
2023-03-25T07:30:56.038Z,99545.94
2023-03-25T07:33:23.949Z,99553.09
2023-03-25T07:35:52.072Z,99552.56
2023-03-25T07:38:20.591Z,99556.81
2023-03-25T07:40:49.901Z,99559.53
2023-03-25T07:43:18.299Z,99563.91
2023-03-25T07:46:09.077Z,99581.59
2023-03-25T07:48:37.750Z,99570.97
2023-03-25T07:51:06.031Z,99581.78
2023-03-25T07:53:33.784Z,99582.25
2023-03-25T07:56:01.677Z,99566.97
2023-03-25T07:58:29.466Z,99572.81
2023-03-25T08:00:57.980Z,99571.28
2023-03-25T08:03:27.972Z,99567.88
2023-03-25T08:05:56.403Z,99560.38
2023-03-25T08:08:24.476Z,99555.78
2023-03-25T08:10:52.665Z,99557.81
2023-03-25T08:13:20.499Z,99560.69
2023-03-25T08:15:48.412Z,99556.91
2023-03-25T08:18:16.630Z,99562.44
2023-03-25T08:20:45.847Z,99566.38
2023-03-25T08:23:19.669Z,99565.41
2023-03-25T08:25:50.401Z,99569.81
2023-03-25T08:28:22.963Z,99569.88
2023-03-25T08:30:54.946Z,99567.97
2023-03-25T08:33:27.476Z,99577.81
2023-03-25T08:35:58.572Z,99579.19
2023-03-25T08:38:34.321Z,99568.78
2023-03-25T08:41:03.493Z,99576.09
2023-03-25T08:43:31.568Z,99567.50
2023-03-25T08:45:59.537Z,99581.94
2023-03-25T08:48:27.450Z,99580.69
2023-03-25T08:50:56.861Z,99575.59
2023-03-25T08:53:24.839Z,99575.78
2023-03-25T08:55:53.865Z,99578.97
2023-03-25T08:58:22.179Z,99576.22
2023-03-25T09:00:53.483Z,99582.22
2023-03-25T09:03:21.954Z,99580.38
2023-03-25T09:05:50.459Z,99573.69
2023-03-25T09:08:20.104Z,99569.19
2023-03-25T09:10:48.853Z,99572.81
2023-03-25T09:13:17.211Z,99562.09
2023-03-25T09:15:46.593Z,99575.00
2023-03-25T09:18:14.592Z,99566.94
2023-03-25T09:20:42.531Z,99578.09
2023-03-25T09:23:11.800Z,99578.28
2023-03-25T09:25:41.113Z,99575.38
2023-03-25T09:28:08.954Z,99579.38
2023-03-25T09:30:36.781Z,99581.66
2023-03-25T09:33:05.864Z,99585.22
2023-03-25T09:35:39.353Z,99573.34
2023-03-25T09:38:07.559Z,99588.66
2023-03-25T09:40:35.838Z,99580.56
2023-03-25T09:43:25.415Z,99580.63
2023-03-25T09:45:55.509Z,99582.31
2023-03-25T09:48:32.307Z,99579.75
2023-03-25T09:51:04.382Z,99584.50
2023-03-25T09:53:38.820Z,99590.72
2023-03-25T09:56:11.717Z,99584.50
2023-03-25T09:58:44.410Z,99587.38
2023-03-25T10:01:36.532Z,99576.22
2023-03-25T10:04:20.404Z,99583.31
2023-03-25T10:06:58.179Z,99578.78
2023-03-25T10:09:39.638Z,99566.25
2023-03-25T10:12:27.450Z,99555.59
2023-03-25T10:15:10.334Z,99562.91
2023-03-25T10:17:46.187Z,99567.97
2023-03-25T10:20:19.775Z,99561.69
2023-03-25T10:23:01.756Z,99566.03
2023-03-25T10:25:34.359Z,99560.09
2023-03-25T10:28:03.239Z,99559.88
2023-03-25T10:30:36.247Z,99569.59
2023-03-25T10:33:07.276Z,99551.94
2023-03-25T10:35:40.257Z,99569.13
2023-03-25T10:38:14.717Z,99562.50
2023-03-25T10:40:44.995Z,99553.59
2023-03-25T10:43:19.503Z,99561.66
2023-03-25T10:45:50.262Z,99550.28
2023-03-25T10:48:23.720Z,99552.38
2023-03-25T10:50:53.367Z,99543.78
2023-03-25T10:53:24.990Z,99556.94
2023-03-25T10:55:58.464Z,99545.38
2023-03-25T10:58:27.825Z,99541.97
2023-03-25T11:00:57.045Z,99551.78
2023-03-25T11:03:31.275Z,99547.13
2023-03-25T11:05:59.371Z,99559.06
2023-03-25T11:08:27.681Z,99546.53
2023-03-25T11:10:57.882Z,99547.00
2023-03-25T11:13:27.823Z,99546.50
2023-03-25T11:16:00.750Z,99548.25
2023-03-25T11:18:31.637Z,99539.59
2023-03-25T11:21:04.069Z,99551.94
2023-03-25T11:23:35.464Z,99551.72
2023-03-25T11:26:07.656Z,99552.91
2023-03-25T11:28:42.600Z,99550.97
2023-03-25T11:31:15.649Z,99548.59
2023-03-25T11:33:45.998Z,99540.75
2023-03-25T11:36:27.992Z,99532.94
2023-03-25T11:39:01.943Z,99538.66
2023-03-25T11:41:33.481Z,99537.00
2023-03-25T11:44:02.818Z,99532.47
2023-03-25T11:46:34.383Z,99541.41
2023-03-25T11:49:12.115Z,99534.84
2023-03-25T11:51:40.651Z,99544.69
2023-03-25T11:54:12.380Z,99536.50
2023-03-25T11:56:43.048Z,99540.41
2023-03-25T11:59:20.470Z,99538.47
2023-03-25T12:01:51.499Z,99535.97
2023-03-25T12:04:22.222Z,99525.81
2023-03-25T12:06:59.483Z,99533.03
2023-03-25T12:09:30.447Z,99537.06
2023-03-25T12:12:12.993Z,99546.66
2023-03-25T12:14:53.615Z,99538.78
2023-03-25T12:17:37.758Z,99525.91
2023-03-25T12:20:33.697Z,99514.88
2023-03-25T12:23:05.296Z,99516.47
2023-03-25T12:25:46.911Z,99515.16
2023-03-25T12:28:30.990Z,99515.13
2023-03-25T12:31:05.431Z,99518.66
2023-03-25T12:33:49.056Z,99523.94
2023-03-25T12:36:28.831Z,99522.16
2023-03-25T12:39:09.040Z,99524.44
2023-03-25T12:41:47.490Z,99512.09
2023-03-25T12:44:28.584Z,99512.78
2023-03-25T12:50:05.953Z,99522.56
2023-03-25T12:52:44.528Z,99522.78
2023-03-25T12:55:38.160Z,99508.13
2023-03-25T12:58:25.976Z,99503.66
2023-03-25T13:01:01.322Z,99509.53
2023-03-25T13:03:54.195Z,99505.09
2023-03-25T13:06:31.093Z,99502.47
2023-03-25T13:09:04.932Z,99490.53
2023-03-25T13:11:36.658Z,99507.28
2023-03-25T13:14:10.687Z,99496.63
2023-03-25T13:16:41.061Z,99492.63
2023-03-25T13:19:12.995Z,99502.34
2023-03-25T13:21:46.409Z,99495.91
2023-03-25T13:24:18.394Z,99499.84
2023-03-25T13:26:49.307Z,99490.78
2023-03-25T13:29:27.701Z,99509.56
2023-03-25T13:31:58.660Z,99506.09
2023-03-25T13:34:33.258Z,99512.38
2023-03-25T13:37:12.318Z,99510.03
2023-03-25T13:39:53.735Z,99503.00
2023-03-25T13:42:27.221Z,99509.06
2023-03-25T13:44:58.217Z,99499.88
2023-03-25T13:47:32.123Z,99523.28
2023-03-25T13:50:05.232Z,99531.75
2023-03-25T13:52:39.589Z,99538.81
2023-03-25T13:55:14.295Z,99543.28
2023-03-25T13:58:19.689Z,99559.22
2023-03-25T14:01:13.091Z,99542.91
2023-03-25T14:04:26.267Z,99553.19
2023-03-25T14:07:27.366Z,99554.59
2023-03-25T14:10:26.240Z,99553.78
2023-03-25T14:12:57.727Z,99552.97
2023-03-25T14:15:31.079Z,99543.47
2023-03-25T14:17:59.678Z,99554.97
2023-03-25T14:20:31.376Z,99542.22
2023-03-25T14:23:04.343Z,99560.72
2023-03-25T14:25:40.206Z,99553.47
2023-03-25T14:28:13.533Z,99546.59
2023-03-25T14:30:43.109Z,99543.56
2023-03-25T14:33:12.885Z,99546.63
2023-03-25T14:35:49.097Z,99541.53
2023-03-25T14:38:54.125Z,99547.44
2023-03-25T14:41:58.548Z,99541.75
2023-03-25T14:44:32.728Z,99545.91
2023-03-25T14:47:02.920Z,99528.50
2023-03-25T14:49:54.489Z,99521.97
2023-03-25T14:52:31.290Z,99524.78
2023-03-25T14:55:02.751Z,99523.44
2023-03-25T14:57:40.762Z,99531.25
2023-03-25T15:00:13.964Z,99545.06
2023-03-25T15:02:44.518Z,99551.75
2023-03-25T15:05:19.855Z,99555.63
2023-03-25T15:07:50.580Z,99554.56
2023-03-25T15:10:26.475Z,99566.66
2023-03-25T15:13:01.686Z,99567.91
2023-03-25T15:15:33.680Z,99567.91
2023-03-25T15:18:01.607Z,99548.81
2023-03-25T15:20:36.845Z,99549.16
2023-03-25T15:23:33.263Z,99541.66
2023-03-25T15:26:03.126Z,99539.06
2023-03-25T15:28:46.368Z,99536.31
2023-03-25T15:31:38.320Z,99540.69
2023-03-25T15:34:27.135Z,99541.44
2023-03-25T15:37:19.167Z,99544.97
2023-03-25T15:40:06.955Z,99542.03
2023-03-25T15:43:00.325Z,99538.81
2023-03-25T15:45:48.430Z,99539.91
2023-03-25T15:48:43.633Z,99540.00
2023-03-25T15:51:27.359Z,99535.13
2023-03-25T15:54:15.717Z,99545.97
2023-03-25T15:56:47.375Z,99541.66
2023-03-25T15:59:30.188Z,99534.72
2023-03-25T16:02:02.689Z,99539.22
2023-03-25T16:04:36.894Z,99543.16
2023-03-25T16:07:07.973Z,99546.41
2023-03-25T16:09:41.706Z,99544.84
2023-03-25T16:12:10.813Z,99547.03
2023-03-25T16:14:39.681Z,99537.59
2023-03-25T16:17:09.434Z,99527.44
2023-03-25T16:19:42.251Z,99532.34
2023-03-25T16:22:17.993Z,99530.84
2023-03-25T16:24:47.621Z,99528.38
2023-03-25T16:27:23.305Z,99526.28
2023-03-25T16:29:52.801Z,99504.59
2023-03-25T16:32:24.370Z,99504.03
2023-03-25T16:34:53.991Z,99506.31
2023-03-25T16:37:25.269Z,99505.28
2023-03-25T16:39:54.780Z,99502.56
2023-03-25T16:42:27.966Z,99504.56
2023-03-25T16:44:56.323Z,99509.00
2023-03-25T16:47:26.275Z,99508.25
2023-03-25T16:49:56.676Z,99510.22
2023-03-25T16:52:29.369Z,99511.69
2023-03-25T16:55:28.029Z,99509.28
2023-03-25T16:57:56.564Z,99510.94
2023-03-25T17:00:25.605Z,99505.53
2023-03-25T17:02:55.295Z,99500.81
2023-03-25T17:05:25.511Z,99502.03
2023-03-25T17:07:59.152Z,99504.97
2023-03-25T17:10:29.136Z,99511.81
2023-03-25T17:13:00.182Z,99498.25
2023-03-25T17:15:28.614Z,99504.44
2023-03-25T17:18:01.361Z,99505.31
2023-03-25T17:20:36.037Z,99496.34
2023-03-25T17:23:08.294Z,99496.25
2023-03-25T17:25:38.106Z,99498.84
2023-03-25T17:28:21.538Z,99505.94
2023-03-25T17:30:49.745Z,99520.69
2023-03-25T17:33:31.572Z,99532.47
2023-03-25T17:35:59.474Z,99530.91
2023-03-25T17:38:29.606Z,99520.13
2023-03-25T17:41:02.544Z,99523.50
2023-03-25T17:43:33.600Z,99517.63
2023-03-25T17:46:01.954Z,99518.44
2023-03-25T17:48:31.225Z,99519.28
2023-03-25T17:51:00.409Z,99514.69
2023-03-25T17:53:29.103Z,99514.06
2023-03-25T17:55:59.114Z,99529.84
2023-03-25T17:58:27.243Z,99549.16
2023-03-25T18:00:55.265Z,99536.94
2023-03-25T18:03:25.282Z,99557.84
2023-03-25T18:05:54.893Z,99563.81
2023-03-25T18:08:24.789Z,99561.59
2023-03-25T18:10:54.415Z,99562.94
2023-03-25T18:13:23.932Z,99588.78
2023-03-25T18:15:52.620Z,99587.91
2023-03-25T18:18:24.164Z,99595.78
2023-03-25T18:20:53.233Z,99588.47
2023-03-25T18:23:22.845Z,99599.03
2023-03-25T18:25:50.774Z,99603.81
2023-03-25T18:28:18.885Z,99598.88
2023-03-25T18:30:51.119Z,99605.75
2023-03-25T18:33:19.550Z,99587.28
2023-03-25T18:35:47.860Z,99600.25
2023-03-25T18:38:20.022Z,99594.69
2023-03-25T18:40:50.423Z,99600.28
2023-03-25T18:43:18.724Z,99602.22
2023-03-25T18:45:47.188Z,99611.63
2023-03-25T18:48:17.479Z,99613.53
2023-03-25T18:50:52.305Z,99616.38
2023-03-25T18:53:20.709Z,99614.88
2023-03-25T18:55:50.215Z,99616.78
2023-03-25T18:58:18.893Z,99610.78
2023-03-25T19:00:48.327Z,99615.44
2023-03-25T19:03:16.698Z,99628.03
2023-03-25T19:05:45.791Z,99633.19
2023-03-25T19:08:18.116Z,99636.50
2023-03-25T19:10:46.370Z,99631.13
2023-03-25T19:13:18.868Z,99639.84
2023-03-25T19:15:47.413Z,99638.22
2023-03-25T19:18:18.886Z,99637.91
2023-03-25T19:20:48.294Z,99634.13
2023-03-25T19:23:17.672Z,99640.22
2023-03-25T19:25:46.430Z,99648.31
2023-03-25T19:28:17.552Z,99651.78
2023-03-25T19:30:46.271Z,99640.59
2023-03-25T19:33:15.491Z,99645.53
2023-03-25T19:35:49.679Z,99641.56
2023-03-25T19:38:22.780Z,99640.22
2023-03-25T19:40:52.711Z,99644.44
2023-03-25T19:43:22.081Z,99642.28
2023-03-25T19:45:49.941Z,99652.78
2023-03-25T19:48:17.704Z,99645.00
2023-03-25T19:50:45.425Z,99646.16
2023-03-25T19:53:13.247Z,99653.09
2023-03-25T19:55:43.589Z,99656.13
2023-03-25T19:58:12.141Z,99657.06
2023-03-25T20:00:42.028Z,99665.31
2023-03-25T20:03:10.088Z,99654.41
2023-03-25T20:05:38.295Z,99660.28
2023-03-25T20:08:06.232Z,99658.94
2023-03-25T20:10:34.303Z,99670.47
2023-03-25T20:13:02.305Z,99670.81
2023-03-25T20:15:30.184Z,99672.44
2023-03-25T20:17:59.599Z,99667.44
2023-03-25T20:20:27.571Z,99674.53
2023-03-25T20:22:55.529Z,99672.88
2023-03-25T20:25:23.850Z,99668.63
2023-03-25T20:27:51.727Z,99666.97
2023-03-25T20:30:20.979Z,99673.22
2023-03-25T20:32:49.094Z,99674.31
2023-03-25T20:35:19.865Z,99669.91
2023-03-25T20:37:48.869Z,99671.63
2023-03-25T20:40:19.715Z,99672.59
2023-03-25T20:42:49.486Z,99677.09
2023-03-25T20:45:18.592Z,99685.88
2023-03-25T20:47:47.129Z,99679.47
2023-03-25T20:50:17.802Z,99689.34
2023-03-25T20:52:46.066Z,99685.88
2023-03-25T20:55:14.647Z,99690.88
2023-03-25T20:57:42.922Z,99682.09
2023-03-25T21:00:14.158Z,99678.22
2023-03-25T21:02:42.629Z,99678.88
2023-03-25T21:05:10.914Z,99683.50
2023-03-25T21:07:41.251Z,99684.88
2023-03-25T21:10:10.645Z,99687.50
2023-03-25T21:12:43.744Z,99676.56
2023-03-25T21:15:14.451Z,99676.19
2023-03-25T21:17:42.815Z,99679.91
2023-03-25T21:20:12.377Z,99678.06
2023-03-25T21:22:44.371Z,99670.59
2023-03-25T21:25:16.595Z,99682.28
2023-03-25T21:27:45.446Z,99681.13
2023-03-25T21:30:16.966Z,99685.63
2023-03-25T21:32:45.045Z,99686.59
2023-03-25T21:35:13.044Z,99688.75
2023-03-25T21:37:42.238Z,99698.69
2023-03-25T21:40:12.396Z,99706.34
2023-03-25T21:42:42.029Z,99698.69
2023-03-25T21:45:11.501Z,99702.84
2023-03-25T21:47:39.362Z,99704.94
2023-03-25T21:50:09.731Z,99706.47
2023-03-25T21:52:38.277Z,99707.22
2023-03-25T21:55:09.078Z,99722.88
2023-03-25T21:57:38.212Z,99714.41
2023-03-25T22:00:08.823Z,99719.50
2023-03-25T22:02:43.876Z,99714.38
2023-03-25T22:05:12.540Z,99724.78
2023-03-25T22:07:48.063Z,99722.81
2023-03-25T22:10:19.643Z,99730.84
2023-03-25T22:12:47.660Z,99728.47
2023-03-25T22:15:16.062Z,99729.22
2023-03-25T22:17:44.574Z,99729.81
2023-03-25T22:20:13.613Z,99726.91
2023-03-25T22:22:42.911Z,99734.34
2023-03-25T22:25:11.114Z,99738.94
2023-03-25T22:27:40.418Z,99739.66
2023-03-25T22:30:11.244Z,99750.50
2023-03-25T22:32:39.257Z,99748.25
2023-03-25T22:35:08.817Z,99753.78
2023-03-25T22:37:37.780Z,99761.31
2023-03-25T22:40:08.587Z,99754.38
2023-03-25T22:42:36.434Z,99746.91
2023-03-25T22:45:07.295Z,99753.59
2023-03-25T22:47:35.362Z,99757.84
2023-03-25T22:50:03.518Z,99762.97
2023-03-25T22:52:31.536Z,99764.41
2023-03-25T22:54:59.591Z,99778.44
2023-03-25T22:57:27.617Z,99770.38
2023-03-25T22:59:55.828Z,99766.91
2023-03-25T23:02:25.493Z,99768.19
2023-03-25T23:04:53.679Z,99766.91
2023-03-25T23:07:21.874Z,99771.63
2023-03-25T23:09:49.743Z,99778.59
2023-03-25T23:12:23.094Z,99772.75
2023-03-25T23:14:52.636Z,99777.16
2023-03-25T23:17:20.595Z,99776.44
2023-03-25T23:19:50.233Z,99786.63
2023-03-25T23:22:18.214Z,99791.00
2023-03-25T23:24:46.713Z,99789.50
2023-03-25T23:27:15.366Z,99792.06
2023-03-25T23:29:47.097Z,99791.94
2023-03-25T23:32:16.534Z,99787.06
2023-03-25T23:34:45.425Z,99790.09
2023-03-25T23:37:15.200Z,99796.31
2023-03-25T23:39:46.339Z,99804.41
2023-03-25T23:42:14.298Z,99800.84
2023-03-25T23:44:42.231Z,99808.56
2023-03-25T23:47:10.066Z,99804.66
2023-03-25T23:49:38.562Z,99816.59
2023-03-25T23:52:11.174Z,99804.56
2023-03-25T23:54:41.149Z,99806.66
2023-03-25T23:57:09.098Z,99810.03
2023-03-25T23:59:37.072Z,99817.16
